Terminal Aerodrome Forecast
Issued by NWS

Current Version | Previous Version | Graphics & Text | Print | Product List | Glossary On
Versions: 1 2 3 4 5 6 7 8 9 10 11 12 13 14 15 16 17 18
000
FTUS41 KILN 092300
TAFLUK
TAF
KLUK 092320Z 1000/1024 29006KT P6SM SCT060
     FM100300 00000KT P6SM SKC
      TEMPO 1008/1012 2SM BR
     FM101500 36006KT P6SM FEW060=

USA.gov is the U.S. government's official web portal to all federal, state and local government web resources and services.